Estación de Negrete
Ultimos registro cada 15 minutos 55
| N° | Estación | Fecha / Hora | Temperatura | Humedad | Lluvia | Velocidad | Dirección | Radiación | Presion |
| 55 | Negrete | 06-05-2026 13:30 | 17,1 | 72,2 | 0 | 0,5 | 213 | 710,6 | 1012,2 |
| 54 | Negrete | 06-05-2026 13:15 | 16,5 | 76,1 | 0 | 0,5 | 192 | 461,9 | 1011,8 |
| 53 | Negrete | 06-05-2026 13:00 | 15,8 | 77,7 | 0 | 0,5 | 178 | 253,1 | 1010,3 |
| 52 | Negrete | 06-05-2026 12:45 | 15,9 | 79,7 | 0 | 0 | 197 | 295,6 | 1010,9 |
| 51 | Negrete | 06-05-2026 12:30 | 15 | 94,5 | 0 | 0 | 233 | 265,6 | 1007,6 |
| 50 | Negrete | 06-05-2026 12:15 | 14,2 | 96,2 | 0 | 0 | 209 | 125,6 | 1003,4 |
| 49 | Negrete | 06-05-2026 12:00 | 14 | 97,9 | 0 | 0 | 233 | 116,9 | 1003,2 |
| 48 | Negrete | 06-05-2026 11:45 | 13,5 | 96,1 | 0 | 0 | 227 | 89,4 | 1001,5 |
| 47 | Negrete | 06-05-2026 11:30 | 14,1 | 98,6 | 0,2 | 0 | 240 | 80,6 | 1003,4 |
| 46 | Negrete | 06-05-2026 11:15 | 14 | 98,7 | 0 | 0 | 355 | 60,6 | 1002,9 |
| 45 | Negrete | 06-05-2026 11:00 | 14 | 98,4 | 0 | 0 | 340 | 68,1 | 1003,5 |
| 44 | Negrete | 06-05-2026 10:45 | 13,9 | 98,7 | 0 | 0 | 351 | 116,9 | 1003,4 |
| 43 | Negrete | 06-05-2026 10:30 | 13,7 | 98,8 | 0 | 0 | 348 | 104,4 | 1002,2 |
| 42 | Negrete | 06-05-2026 10:15 | 13,4 | 98,8 | 0,2 | 0 | 348 | 60,6 | 1000,4 |
| 41 | Negrete | 06-05-2026 10:00 | 13,2 | 98,7 | 0 | 0 | 341 | 36,9 | 999,7 |
| 40 | Negrete | 06-05-2026 09:45 | 13,1 | 98,5 | 0,2 | 0,5 | 351 | 23,1 | 999 |
| 39 | Negrete | 06-05-2026 09:30 | 13 | 98,7 | 0,6 | 0,5 | 344 | 20,6 | 998,7 |
| 38 | Negrete | 06-05-2026 09:15 | 12,9 | 98,6 | 1 | 0,5 | 355 | 18,1 | 998,1 |
| 37 | Negrete | 06-05-2026 09:00 | 12,9 | 98,4 | 1,4 | 0,5 | 1 | 3,1 | 997,9 |
| 36 | Negrete | 06-05-2026 08:45 | 12,9 | 98,2 | 0 | 0 | 8 | 1,9 | 998,3 |
| 35 | Negrete | 06-05-2026 08:30 | 12,9 | 98,1 | 0,2 | 0,5 | 347 | 5,6 | 998 |
| 34 | Negrete | 06-05-2026 08:15 | 13 | 98,1 | 0 | 0,5 | 352 | 6,9 | 998,2 |
| 33 | Negrete | 06-05-2026 08:00 | 13 | 98,2 | 0 | 0,5 | 354 | 3,1 | 998,3 |
| 32 | Negrete | 06-05-2026 07:45 | 13 | 98,3 | 0,6 | 1 | 0 | 0,6 | 998,4 |
| 31 | Negrete | 06-05-2026 07:30 | 13 | 98,3 | 0,2 | 1 | 354 | 0,6 | 998,4 |
| 30 | Negrete | 06-05-2026 07:15 | 12,9 | 98,3 | 0 | 0,5 | 354 | 0,6 | 998,4 |
| 29 | Negrete | 06-05-2026 07:00 | 12,9 | 98,4 | 0 | 0,5 | 350 | 0,6 | 998,4 |
| 28 | Negrete | 06-05-2026 06:45 | 12,9 | 98,3 | 0 | 1 | 358 | 0,6 | 998,5 |
| 27 | Negrete | 06-05-2026 06:30 | 12,9 | 98,2 | 0 | 1 | 354 | 0,6 | 998,4 |
| 26 | Negrete | 06-05-2026 06:15 | 12,9 | 98,7 | 0,2 | 0,5 | 347 | 0,6 | 998,4 |
| 25 | Negrete | 06-05-2026 06:00 | 12,9 | 98,6 | 0,4 | 0,5 | 352 | 0,6 | 998,7 |
| 24 | Negrete | 06-05-2026 05:45 | 12,9 | 98,8 | 0,6 | 0,5 | 350 | 0,6 | 998,9 |
| 23 | Negrete | 06-05-2026 05:30 | 13 | 98,7 | 1,2 | 0,5 | 352 | 0,6 | 999,2 |
| 22 | Negrete | 06-05-2026 05:15 | 13 | 98,6 | 0,6 | 0,5 | 357 | 0,6 | 999,4 |
| 21 | Negrete | 06-05-2026 05:00 | 13 | 98,6 | 0,2 | 0,5 | 354 | 0,6 | 999,3 |
| 20 | Negrete | 06-05-2026 04:45 | 13 | 98,7 | 0,2 | 1 | 357 | 0,6 | 999,4 |
| 19 | Negrete | 06-05-2026 04:30 | 13 | 98,9 | 0,2 | 0,5 | 354 | 0,6 | 999,6 |
| 18 | Negrete | 06-05-2026 04:15 | 13 | 98,9 | 0,2 | 0,5 | 1 | 0,6 | 999,6 |
| 17 | Negrete | 06-05-2026 04:00 | 13 | 99 | 0,2 | 0,5 | 357 | 0,6 | 999,7 |
| 16 | Negrete | 06-05-2026 03:45 | 13 | 99 | 0,2 | 0 | 3 | 0,6 | 999,5 |
| 15 | Negrete | 06-05-2026 03:30 | 12,9 | 99 | 0,4 | 0,5 | 4 | 0,6 | 999,6 |
| 14 | Negrete | 06-05-2026 03:15 | 12,9 | 98,9 | 0,2 | 0 | 354 | 0,6 | 999,6 |
| 13 | Negrete | 06-05-2026 03:00 | 12,9 | 98,8 | 0 | 0 | 3 | 0,6 | 999,5 |
| 12 | Negrete | 06-05-2026 02:45 | 12,9 | 98,8 | 0,4 | 0 | 3 | 0,6 | 999,5 |
| 11 | Negrete | 06-05-2026 02:30 | 12,9 | 98,8 | 1,6 | 0 | 350 | 0,6 | 999,6 |
| 10 | Negrete | 06-05-2026 02:15 | 13 | 98,8 | 0,4 | 0 | 355 | 0,6 | 999,8 |
| 9 | Negrete | 06-05-2026 02:00 | 13 | 98,7 | 1 | 0 | 354 | 0,6 | 1000 |
| 8 | Negrete | 06-05-2026 01:45 | 13,1 | 98,9 | 0,2 | 0 | 331 | 0,6 | 1000,1 |
| 7 | Negrete | 06-05-2026 01:30 | 13 | 98,9 | 0 | 0 | 14 | 0,6 | 1000 |
| 6 | Negrete | 06-05-2026 01:15 | 13 | 98,9 | 0,4 | 0 | 41 | 0,6 | 1000,2 |
| 5 | Negrete | 06-05-2026 01:00 | 13 | 99 | 0,6 | 0,5 | 14 | 0,6 | 999,9 |
| 4 | Negrete | 06-05-2026 00:45 | 12,9 | 99,1 | 1 | 0 | 22 | 0,6 | 999,9 |
| 3 | Negrete | 06-05-2026 00:30 | 12,8 | 99 | 1,2 | 0 | 18 | 0,6 | 999,6 |
| 2 | Negrete | 06-05-2026 00:15 | 12,9 | 99 | 1,4 | 0 | 18 | 0,6 | 999,7 |
| 1 | Negrete | 06-05-2026 00:00 | 12,9 | 99 | 0,8 | 0 | 282 | 0,6 | 999,6 |